sensor_id;sensor_type;location;lat;lon;timestamp;temperature;humidity
68746;SHT31;66104;45.456;11.064;2023-05-06T00:01:00;18.86;57.30
68746;SHT31;66104;45.456;11.064;2023-05-06T00:03:37;18.83;57.38
68746;SHT31;66104;45.456;11.064;2023-05-06T00:06:13;18.81;57.37
68746;SHT31;66104;45.456;11.064;2023-05-06T00:08:49;18.76;57.37
68746;SHT31;66104;45.456;11.064;2023-05-06T00:11:26;18.70;57.49
68746;SHT31;66104;45.456;11.064;2023-05-06T00:14:02;18.68;57.56
68746;SHT31;66104;45.456;11.064;2023-05-06T00:16:40;18.64;57.67
68746;SHT31;66104;45.456;11.064;2023-05-06T00:19:18;18.64;57.74
68746;SHT31;66104;45.456;11.064;2023-05-06T00:21:55;18.66;57.72
68746;SHT31;66104;45.456;11.064;2023-05-06T00:24:31;18.66;57.78
68746;SHT31;66104;45.456;11.064;2023-05-06T00:27:09;18.64;57.89
68746;SHT31;66104;45.456;11.064;2023-05-06T00:29:44;18.61;58.00
68746;SHT31;66104;45.456;11.064;2023-05-06T00:32:21;18.60;58.08
68746;SHT31;66104;45.456;11.064;2023-05-06T00:34:57;18.58;58.11
68746;SHT31;66104;45.456;11.064;2023-05-06T00:37:34;18.56;58.18
68746;SHT31;66104;45.456;11.064;2023-05-06T00:40:12;18.54;58.21
68746;SHT31;66104;45.456;11.064;2023-05-06T00:42:49;18.53;58.31
68746;SHT31;66104;45.456;11.064;2023-05-06T00:45:25;18.52;58.36
68746;SHT31;66104;45.456;11.064;2023-05-06T00:48:03;18.50;58.43
68746;SHT31;66104;45.456;11.064;2023-05-06T00:50:40;18.48;58.49
68746;SHT31;66104;45.456;11.064;2023-05-06T00:53:19;18.46;58.55
68746;SHT31;66104;45.456;11.064;2023-05-06T00:55:56;18.43;58.62
68746;SHT31;66104;45.456;11.064;2023-05-06T00:58:34;18.42;58.71
68746;SHT31;66104;45.456;11.064;2023-05-06T01:01:11;18.38;58.87
68746;SHT31;66104;45.456;11.064;2023-05-06T01:03:49;18.34;59.03
68746;SHT31;66104;45.456;11.064;2023-05-06T01:06:28;18.29;59.16
68746;SHT31;66104;45.456;11.064;2023-05-06T01:09:16;18.25;59.29
68746;SHT31;66104;45.456;11.064;2023-05-06T01:12:03;18.23;59.36
68746;SHT31;66104;45.456;11.064;2023-05-06T01:14:48;18.24;59.38
68746;SHT31;66104;45.456;11.064;2023-05-06T01:17:38;18.21;59.49
68746;SHT31;66104;45.456;11.064;2023-05-06T01:20:17;18.16;59.59
68746;SHT31;66104;45.456;11.064;2023-05-06T01:22:55;18.14;59.64
68746;SHT31;66104;45.456;11.064;2023-05-06T01:25:32;18.13;59.75
68746;SHT31;66104;45.456;11.064;2023-05-06T01:28:08;18.11;59.78
68746;SHT31;66104;45.456;11.064;2023-05-06T01:30:48;18.09;59.83
68746;SHT31;66104;45.456;11.064;2023-05-06T01:33:35;18.09;59.87
68746;SHT31;66104;45.456;11.064;2023-05-06T01:36:21;18.07;59.87
68746;SHT31;66104;45.456;11.064;2023-05-06T01:39:04;18.08;59.90
68746;SHT31;66104;45.456;11.064;2023-05-06T01:41:47;18.08;59.91
68746;SHT31;66104;45.456;11.064;2023-05-06T01:44:27;18.09;59.85
68746;SHT31;66104;45.456;11.064;2023-05-06T01:47:09;18.12;59.80
68746;SHT31;66104;45.456;11.064;2023-05-06T01:49:47;18.13;59.71
68746;SHT31;66104;45.456;11.064;2023-05-06T01:52:25;18.13;59.74
68746;SHT31;66104;45.456;11.064;2023-05-06T01:55:01;18.13;59.81
68746;SHT31;66104;45.456;11.064;2023-05-06T01:57:40;18.11;59.80
68746;SHT31;66104;45.456;11.064;2023-05-06T02:00:17;18.12;59.80
68746;SHT31;66104;45.456;11.064;2023-05-06T02:02:56;18.14;59.77
68746;SHT31;66104;45.456;11.064;2023-05-06T02:05:33;18.12;59.72
68746;SHT31;66104;45.456;11.064;2023-05-06T02:08:11;18.10;59.75
68746;SHT31;66104;45.456;11.064;2023-05-06T02:10:48;18.11;59.73
68746;SHT31;66104;45.456;11.064;2023-05-06T02:13:24;18.11;59.72
68746;SHT31;66104;45.456;11.064;2023-05-06T02:16:02;18.11;59.73
68746;SHT31;66104;45.456;11.064;2023-05-06T02:18:39;18.11;59.73
68746;SHT31;66104;45.456;11.064;2023-05-06T02:21:16;18.10;59.79
68746;SHT31;66104;45.456;11.064;2023-05-06T02:23:53;18.09;59.90
68746;SHT31;66104;45.456;11.064;2023-05-06T02:26:29;18.08;59.91
68746;SHT31;66104;45.456;11.064;2023-05-06T02:29:06;18.05;59.99
68746;SHT31;66104;45.456;11.064;2023-05-06T02:31:43;18.03;59.97
68746;SHT31;66104;45.456;11.064;2023-05-06T02:34:19;17.98;60.06
68746;SHT31;66104;45.456;11.064;2023-05-06T02:36:55;17.93;60.19
68746;SHT31;66104;45.456;11.064;2023-05-06T02:39:32;17.94;60.23
68746;SHT31;66104;45.456;11.064;2023-05-06T02:42:09;17.93;60.33
68746;SHT31;66104;45.456;11.064;2023-05-06T02:44:45;17.90;60.54
68746;SHT31;66104;45.456;11.064;2023-05-06T02:47:21;17.86;60.83
68746;SHT31;66104;45.456;11.064;2023-05-06T02:49:57;17.85;61.22
68746;SHT31;66104;45.456;11.064;2023-05-06T02:52:32;17.85;61.78
68746;SHT31;66104;45.456;11.064;2023-05-06T02:55:09;17.80;62.20
68746;SHT31;66104;45.456;11.064;2023-05-06T02:57:45;17.78;62.54
68746;SHT31;66104;45.456;11.064;2023-05-06T03:00:22;17.75;62.70
68746;SHT31;66104;45.456;11.064;2023-05-06T03:02:58;17.76;62.91
68746;SHT31;66104;45.456;11.064;2023-05-06T03:05:34;17.72;62.76
68746;SHT31;66104;45.456;11.064;2023-05-06T03:08:10;17.74;62.37
68746;SHT31;66104;45.456;11.064;2023-05-06T03:10:46;17.76;62.24
68746;SHT31;66104;45.456;11.064;2023-05-06T03:13:23;17.82;62.16
68746;SHT31;66104;45.456;11.064;2023-05-06T03:16:00;17.84;61.92
68746;SHT31;66104;45.456;11.064;2023-05-06T03:18:44;17.83;61.71
68746;SHT31;66104;45.456;11.064;2023-05-06T03:21:20;17.82;61.57
68746;SHT31;66104;45.456;11.064;2023-05-06T03:23:58;17.83;61.36
68746;SHT31;66104;45.456;11.064;2023-05-06T03:26:35;17.83;61.30
68746;SHT31;66104;45.456;11.064;2023-05-06T03:29:12;17.77;61.38
68746;SHT31;66104;45.456;11.064;2023-05-06T03:31:49;17.74;61.46
68746;SHT31;66104;45.456;11.064;2023-05-06T03:34:27;17.72;61.50
68746;SHT31;66104;45.456;11.064;2023-05-06T03:37:03;17.72;61.54
68746;SHT31;66104;45.456;11.064;2023-05-06T03:39:40;17.72;61.52
68746;SHT31;66104;45.456;11.064;2023-05-06T03:42:17;17.68;61.61
68746;SHT31;66104;45.456;11.064;2023-05-06T03:44:54;17.67;61.68
68746;SHT31;66104;45.456;11.064;2023-05-06T03:47:31;17.63;61.69
68746;SHT31;66104;45.456;11.064;2023-05-06T03:50:09;17.62;61.80
68746;SHT31;66104;45.456;11.064;2023-05-06T03:52:47;17.62;61.80
68746;SHT31;66104;45.456;11.064;2023-05-06T03:55:24;17.61;61.90
68746;SHT31;66104;45.456;11.064;2023-05-06T03:58:01;17.59;61.93
68746;SHT31;66104;45.456;11.064;2023-05-06T04:00:36;17.55;62.06
68746;SHT31;66104;45.456;11.064;2023-05-06T04:03:13;17.54;62.19
68746;SHT31;66104;45.456;11.064;2023-05-06T04:05:50;17.52;62.23
68746;SHT31;66104;45.456;11.064;2023-05-06T04:08:27;17.49;62.37
68746;SHT31;66104;45.456;11.064;2023-05-06T04:11:07;17.49;62.40
68746;SHT31;66104;45.456;11.064;2023-05-06T04:13:43;17.51;62.41
68746;SHT31;66104;45.456;11.064;2023-05-06T04:16:20;17.52;62.44
68746;SHT31;66104;45.456;11.064;2023-05-06T04:18:56;17.54;62.52
68746;SHT31;66104;45.456;11.064;2023-05-06T04:21:34;17.55;62.52
68746;SHT31;66104;45.456;11.064;2023-05-06T04:24:11;17.58;62.50
68746;SHT31;66104;45.456;11.064;2023-05-06T04:26:49;17.58;62.55
68746;SHT31;66104;45.456;11.064;2023-05-06T04:29:26;17.60;62.53
68746;SHT31;66104;45.456;11.064;2023-05-06T04:32:03;17.62;62.68
68746;SHT31;66104;45.456;11.064;2023-05-06T04:34:41;17.56;62.96
68746;SHT31;66104;45.456;11.064;2023-05-06T04:37:17;17.52;63.22
68746;SHT31;66104;45.456;11.064;2023-05-06T04:40:02;17.44;63.57
68746;SHT31;66104;45.456;11.064;2023-05-06T04:42:45;17.40;63.86
68746;SHT31;66104;45.456;11.064;2023-05-06T04:45:25;17.37;64.18
68746;SHT31;66104;45.456;11.064;2023-05-06T04:48:02;17.38;64.32
68746;SHT31;66104;45.456;11.064;2023-05-06T04:50:40;17.43;64.27
68746;SHT31;66104;45.456;11.064;2023-05-06T04:53:16;17.47;64.24
68746;SHT31;66104;45.456;11.064;2023-05-06T04:55:52;17.51;64.26
68746;SHT31;66104;45.456;11.064;2023-05-06T04:58:30;17.49;64.34
68746;SHT31;66104;45.456;11.064;2023-05-06T05:01:07;17.42;64.57
68746;SHT31;66104;45.456;11.064;2023-05-06T05:03:43;17.34;65.00
68746;SHT31;66104;45.456;11.064;2023-05-06T05:06:21;17.30;65.30
68746;SHT31;66104;45.456;11.064;2023-05-06T05:08:57;17.27;65.50
68746;SHT31;66104;45.456;11.064;2023-05-06T05:11:33;17.25;65.72
68746;SHT31;66104;45.456;11.064;2023-05-06T05:14:12;17.25;65.83
68746;SHT31;66104;45.456;11.064;2023-05-06T05:16:49;17.28;65.84
68746;SHT31;66104;45.456;11.064;2023-05-06T05:19:25;17.32;65.87
68746;SHT31;66104;45.456;11.064;2023-05-06T05:22:01;17.36;65.92
68746;SHT31;66104;45.456;11.064;2023-05-06T05:24:37;17.43;65.67
68746;SHT31;66104;45.456;11.064;2023-05-06T05:27:13;17.53;65.41
68746;SHT31;66104;45.456;11.064;2023-05-06T05:29:51;17.63;65.30
68746;SHT31;66104;45.456;11.064;2023-05-06T05:32:30;17.68;65.25
68746;SHT31;66104;45.456;11.064;2023-05-06T05:35:07;17.69;64.98
68746;SHT31;66104;45.456;11.064;2023-05-06T05:37:43;17.72;64.80
68746;SHT31;66104;45.456;11.064;2023-05-06T05:40:20;17.78;64.72
68746;SHT31;66104;45.456;11.064;2023-05-06T05:42:57;17.82;64.79
68746;SHT31;66104;45.456;11.064;2023-05-06T05:45:37;17.88;64.67
68746;SHT31;66104;45.456;11.064;2023-05-06T05:48:14;17.95;64.57
68746;SHT31;66104;45.456;11.064;2023-05-06T05:50:51;18.00;64.45
68746;SHT31;66104;45.456;11.064;2023-05-06T05:53:29;18.06;64.51
68746;SHT31;66104;45.456;11.064;2023-05-06T05:56:06;18.10;64.50
68746;SHT31;66104;45.456;11.064;2023-05-06T05:58:42;18.19;64.50
68746;SHT31;66104;45.456;11.064;2023-05-06T06:01:18;18.26;64.43
68746;SHT31;66104;45.456;11.064;2023-05-06T06:03:56;18.31;64.54
68746;SHT31;66104;45.456;11.064;2023-05-06T06:06:33;18.37;64.48
68746;SHT31;66104;45.456;11.064;2023-05-06T06:09:09;18.43;64.32
68746;SHT31;66104;45.456;11.064;2023-05-06T06:11:47;18.51;64.25
68746;SHT31;66104;45.456;11.064;2023-05-06T06:14:24;18.62;64.27
68746;SHT31;66104;45.456;11.064;2023-05-06T06:17:01;18.75;64.11
68746;SHT31;66104;45.456;11.064;2023-05-06T06:19:38;18.87;63.86
68746;SHT31;66104;45.456;11.064;2023-05-06T06:22:14;18.99;63.63
68746;SHT31;66104;45.456;11.064;2023-05-06T06:24:51;19.14;63.52
68746;SHT31;66104;45.456;11.064;2023-05-06T06:27:28;19.27;63.45
68746;SHT31;66104;45.456;11.064;2023-05-06T06:30:09;19.42;63.17
68746;SHT31;66104;45.456;11.064;2023-05-06T06:32:48;19.59;62.85
68746;SHT31;66104;45.456;11.064;2023-05-06T06:35:26;19.78;62.50
68746;SHT31;66104;45.456;11.064;2023-05-06T06:38:02;19.97;62.03
68746;SHT31;66104;45.456;11.064;2023-05-06T06:40:39;20.19;61.49
68746;SHT31;66104;45.456;11.064;2023-05-06T06:43:16;20.38;60.94
68746;SHT31;66104;45.456;11.064;2023-05-06T06:45:55;20.53;60.35
68746;SHT31;66104;45.456;11.064;2023-05-06T06:48:31;20.66;60.06
68746;SHT31;66104;45.456;11.064;2023-05-06T06:51:08;20.82;59.66
68746;SHT31;66104;45.456;11.064;2023-05-06T06:53:44;20.93;58.92
68746;SHT31;66104;45.456;11.064;2023-05-06T06:56:21;20.99;58.23
68746;SHT31;66104;45.456;11.064;2023-05-06T06:58:58;21.05;57.99
68746;SHT31;66104;45.456;11.064;2023-05-06T07:01:34;21.14;58.20
68746;SHT31;66104;45.456;11.064;2023-05-06T07:04:11;21.22;58.50
68746;SHT31;66104;45.456;11.064;2023-05-06T07:06:47;21.28;58.20
68746;SHT31;66104;45.456;11.064;2023-05-06T07:09:24;21.36;58.01
68746;SHT31;66104;45.456;11.064;2023-05-06T07:12:03;21.46;57.65
68746;SHT31;66104;45.456;11.064;2023-05-06T07:14:40;21.59;57.37
68746;SHT31;66104;45.456;11.064;2023-05-06T07:17:17;21.67;57.13
68746;SHT31;66104;45.456;11.064;2023-05-06T07:19:53;21.72;57.32
68746;SHT31;66104;45.456;11.064;2023-05-06T07:22:30;21.75;57.11
68746;SHT31;66104;45.456;11.064;2023-05-06T07:25:08;21.83;57.14
68746;SHT31;66104;45.456;11.064;2023-05-06T07:27:46;21.93;56.55
68746;SHT31;66104;45.456;11.064;2023-05-06T07:30:24;22.03;55.93
68746;SHT31;66104;45.456;11.064;2023-05-06T07:33:00;22.13;55.88
68746;SHT31;66104;45.456;11.064;2023-05-06T07:35:37;22.23;55.95
68746;SHT31;66104;45.456;11.064;2023-05-06T07:38:13;22.34;55.75
68746;SHT31;66104;45.456;11.064;2023-05-06T07:40:51;22.44;55.75
68746;SHT31;66104;45.456;11.064;2023-05-06T07:43:28;22.50;56.01
68746;SHT31;66104;45.456;11.064;2023-05-06T07:46:04;22.59;55.99
68746;SHT31;66104;45.456;11.064;2023-05-06T07:48:41;22.67;55.73
68746;SHT31;66104;45.456;11.064;2023-05-06T07:51:18;22.74;55.26
68746;SHT31;66104;45.456;11.064;2023-05-06T07:53:55;22.79;54.60
68746;SHT31;66104;45.456;11.064;2023-05-06T07:56:32;22.86;54.68
68746;SHT31;66104;45.456;11.064;2023-05-06T07:59:08;22.90;54.56
68746;SHT31;66104;45.456;11.064;2023-05-06T08:01:44;22.92;54.09
68746;SHT31;66104;45.456;11.064;2023-05-06T08:04:20;22.97;53.81
68746;SHT31;66104;45.456;11.064;2023-05-06T08:06:57;23.01;53.95
68746;SHT31;66104;45.456;11.064;2023-05-06T08:09:33;23.07;53.77
68746;SHT31;66104;45.456;11.064;2023-05-06T08:12:10;23.11;53.02
68746;SHT31;66104;45.456;11.064;2023-05-06T08:14:46;23.15;53.02
68746;SHT31;66104;45.456;11.064;2023-05-06T08:17:23;23.21;52.55
68746;SHT31;66104;45.456;11.064;2023-05-06T08:20:00;23.25;52.23
68746;SHT31;66104;45.456;11.064;2023-05-06T08:22:41;23.28;52.40
68746;SHT31;66104;45.456;11.064;2023-05-06T08:25:17;23.37;52.63
68746;SHT31;66104;45.456;11.064;2023-05-06T08:27:53;23.43;51.82
68746;SHT31;66104;45.456;11.064;2023-05-06T08:30:29;23.51;51.15
68746;SHT31;66104;45.456;11.064;2023-05-06T08:33:06;23.55;50.99
68746;SHT31;66104;45.456;11.064;2023-05-06T08:35:42;23.61;50.78
68746;SHT31;66104;45.456;11.064;2023-05-06T08:38:19;23.62;50.05
68746;SHT31;66104;45.456;11.064;2023-05-06T08:40:55;23.65;50.08
68746;SHT31;66104;45.456;11.064;2023-05-06T08:43:40;23.65;50.10
68746;SHT31;66104;45.456;11.064;2023-05-06T08:46:19;23.66;49.91
68746;SHT31;66104;45.456;11.064;2023-05-06T08:48:58;23.69;49.44
68746;SHT31;66104;45.456;11.064;2023-05-06T08:51:36;23.74;49.66
68746;SHT31;66104;45.456;11.064;2023-05-06T08:54:15;23.76;49.75
68746;SHT31;66104;45.456;11.064;2023-05-06T08:56:55;23.76;49.74
68746;SHT31;66104;45.456;11.064;2023-05-06T08:59:36;23.78;49.44
68746;SHT31;66104;45.456;11.064;2023-05-06T09:02:14;23.80;49.39
68746;SHT31;66104;45.456;11.064;2023-05-06T09:04:52;23.83;49.35
68746;SHT31;66104;45.456;11.064;2023-05-06T09:07:29;23.85;49.24
68746;SHT31;66104;45.456;11.064;2023-05-06T09:10:07;23.92;49.19
68746;SHT31;66104;45.456;11.064;2023-05-06T09:12:48;23.97;48.63
68746;SHT31;66104;45.456;11.064;2023-05-06T09:15:37;24.01;48.47
68746;SHT31;66104;45.456;11.064;2023-05-06T09:18:15;24.07;48.42
68746;SHT31;66104;45.456;11.064;2023-05-06T09:20:50;24.12;48.37
68746;SHT31;66104;45.456;11.064;2023-05-06T09:23:28;24.20;48.13
68746;SHT31;66104;45.456;11.064;2023-05-06T09:26:06;24.26;48.29
68746;SHT31;66104;45.456;11.064;2023-05-06T09:28:45;24.29;48.48
68746;SHT31;66104;45.456;11.064;2023-05-06T09:31:23;24.34;48.26
68746;SHT31;66104;45.456;11.064;2023-05-06T09:33:58;24.38;47.78
68746;SHT31;66104;45.456;11.064;2023-05-06T09:36:36;24.43;47.57
68746;SHT31;66104;45.456;11.064;2023-05-06T09:39:11;24.48;47.63
68746;SHT31;66104;45.456;11.064;2023-05-06T09:41:47;24.53;47.60
68746;SHT31;66104;45.456;11.064;2023-05-06T09:44:24;24.58;47.71
68746;SHT31;66104;45.456;11.064;2023-05-06T09:47:02;24.63;47.21
68746;SHT31;66104;45.456;11.064;2023-05-06T09:49:39;24.68;46.94
68746;SHT31;66104;45.456;11.064;2023-05-06T09:52:16;24.73;47.06
68746;SHT31;66104;45.456;11.064;2023-05-06T09:54:54;24.75;46.96
68746;SHT31;66104;45.456;11.064;2023-05-06T09:57:31;24.68;47.19
68746;SHT31;66104;45.456;11.064;2023-05-06T10:00:09;24.66;47.80
68746;SHT31;66104;45.456;11.064;2023-05-06T10:02:47;24.72;48.02
68746;SHT31;66104;45.456;11.064;2023-05-06T10:05:24;24.80;48.26
68746;SHT31;66104;45.456;11.064;2023-05-06T10:08:01;24.87;48.35
68746;SHT31;66104;45.456;11.064;2023-05-06T10:10:39;24.93;48.23
68746;SHT31;66104;45.456;11.064;2023-05-06T10:13:18;24.94;48.09
68746;SHT31;66104;45.456;11.064;2023-05-06T10:15:55;24.94;47.80
68746;SHT31;66104;45.456;11.064;2023-05-06T10:18:33;24.99;48.01
68746;SHT31;66104;45.456;11.064;2023-05-06T10:21:15;25.06;47.27
68746;SHT31;66104;45.456;11.064;2023-05-06T10:23:59;25.15;46.78
68746;SHT31;66104;45.456;11.064;2023-05-06T10:26:44;25.22;46.31
68746;SHT31;66104;45.456;11.064;2023-05-06T10:29:25;25.28;46.37
68746;SHT31;66104;45.456;11.064;2023-05-06T10:32:02;25.34;46.29
68746;SHT31;66104;45.456;11.064;2023-05-06T10:34:40;25.41;46.65
68746;SHT31;66104;45.456;11.064;2023-05-06T10:37:24;25.46;47.13
68746;SHT31;66104;45.456;11.064;2023-05-06T10:40:03;25.47;47.30
68746;SHT31;66104;45.456;11.064;2023-05-06T10:42:44;25.48;47.18
68746;SHT31;66104;45.456;11.064;2023-05-06T10:45:21;25.49;47.57
68746;SHT31;66104;45.456;11.064;2023-05-06T10:48:07;25.60;46.65
68746;SHT31;66104;45.456;11.064;2023-05-06T10:50:44;25.71;45.51
68746;SHT31;66104;45.456;11.064;2023-05-06T10:53:26;25.79;45.46
68746;SHT31;66104;45.456;11.064;2023-05-06T10:59:44;25.99;45.06
68746;SHT31;66104;45.456;11.064;2023-05-06T11:02:23;26.04;44.98
68746;SHT31;66104;45.456;11.064;2023-05-06T11:05:01;26.06;44.88
68746;SHT31;66104;45.456;11.064;2023-05-06T11:07:42;26.08;44.89
68746;SHT31;66104;45.456;11.064;2023-05-06T11:10:33;26.12;45.00
68746;SHT31;66104;45.456;11.064;2023-05-06T11:16:08;26.26;44.61
68746;SHT31;66104;45.456;11.064;2023-05-06T11:19:21;26.26;44.36
68746;SHT31;66104;45.456;11.064;2023-05-06T11:22:00;26.20;44.35
68746;SHT31;66104;45.456;11.064;2023-05-06T11:24:39;26.13;44.21
68746;SHT31;66104;45.456;11.064;2023-05-06T11:27:17;26.16;44.25
68746;SHT31;66104;45.456;11.064;2023-05-06T11:29:54;26.26;44.07
68746;SHT31;66104;45.456;11.064;2023-05-06T11:32:31;26.36;44.33
68746;SHT31;66104;45.456;11.064;2023-05-06T11:35:08;26.40;44.03
68746;SHT31;66104;45.456;11.064;2023-05-06T11:37:47;26.42;43.89
68746;SHT31;66104;45.456;11.064;2023-05-06T11:40:24;26.46;43.62
68746;SHT31;66104;45.456;11.064;2023-05-06T11:43:11;26.49;43.50
68746;SHT31;66104;45.456;11.064;2023-05-06T11:45:48;26.51;43.58
68746;SHT31;66104;45.456;11.064;2023-05-06T11:48:24;26.54;43.38
68746;SHT31;66104;45.456;11.064;2023-05-06T11:51:01;26.54;43.57
68746;SHT31;66104;45.456;11.064;2023-05-06T11:53:38;26.50;43.53
68746;SHT31;66104;45.456;11.064;2023-05-06T11:56:15;26.50;43.66
68746;SHT31;66104;45.456;11.064;2023-05-06T11:58:51;26.60;43.29
68746;SHT31;66104;45.456;11.064;2023-05-06T12:01:29;26.68;43.32
68746;SHT31;66104;45.456;11.064;2023-05-06T12:04:05;26.75;43.21
68746;SHT31;66104;45.456;11.064;2023-05-06T12:06:42;26.79;43.04
68746;SHT31;66104;45.456;11.064;2023-05-06T12:09:19;26.85;43.11
68746;SHT31;66104;45.456;11.064;2023-05-06T12:11:55;26.93;42.81
68746;SHT31;66104;45.456;11.064;2023-05-06T12:14:32;26.96;42.43
68746;SHT31;66104;45.456;11.064;2023-05-06T12:17:09;26.95;42.18
68746;SHT31;66104;45.456;11.064;2023-05-06T12:19:47;26.94;42.35
68746;SHT31;66104;45.456;11.064;2023-05-06T12:22:25;26.97;42.48
68746;SHT31;66104;45.456;11.064;2023-05-06T12:25:11;27.00;42.57
68746;SHT31;66104;45.456;11.064;2023-05-06T12:27:52;27.02;42.36
68746;SHT31;66104;45.456;11.064;2023-05-06T12:30:31;27.05;42.14
68746;SHT31;66104;45.456;11.064;2023-05-06T12:33:08;27.09;42.37
68746;SHT31;66104;45.456;11.064;2023-05-06T12:35:45;27.14;42.00
68746;SHT31;66104;45.456;11.064;2023-05-06T12:38:22;27.15;42.17
68746;SHT31;66104;45.456;11.064;2023-05-06T12:41:00;27.23;42.13
68746;SHT31;66104;45.456;11.064;2023-05-06T12:43:37;27.25;41.92
68746;SHT31;66104;45.456;11.064;2023-05-06T12:46:14;27.22;41.78
68746;SHT31;66104;45.456;11.064;2023-05-06T12:48:57;27.18;42.12
68746;SHT31;66104;45.456;11.064;2023-05-06T12:51:34;27.20;41.74
68746;SHT31;66104;45.456;11.064;2023-05-06T12:57:05;27.35;41.53
68746;SHT31;66104;45.456;11.064;2023-05-06T12:59:41;27.44;41.47
68746;SHT31;66104;45.456;11.064;2023-05-06T13:02:18;27.51;41.36
68746;SHT31;66104;45.456;11.064;2023-05-06T13:04:54;27.56;41.33
68746;SHT31;66104;45.456;11.064;2023-05-06T13:07:30;27.62;41.48
68746;SHT31;66104;45.456;11.064;2023-05-06T13:10:08;27.64;41.42
68746;SHT31;66104;45.456;11.064;2023-05-06T13:12:46;27.61;41.10
68746;SHT31;66104;45.456;11.064;2023-05-06T13:15:22;27.60;41.02
68746;SHT31;66104;45.456;11.064;2023-05-06T13:17:58;27.63;41.15
68746;SHT31;66104;45.456;11.064;2023-05-06T13:20:35;27.52;41.64
68746;SHT31;66104;45.456;11.064;2023-05-06T13:23:16;27.40;41.67
68746;SHT31;66104;45.456;11.064;2023-05-06T13:25:52;27.30;41.70
68746;SHT31;66104;45.456;11.064;2023-05-06T13:28:33;27.27;41.39
68746;SHT31;66104;45.456;11.064;2023-05-06T13:31:09;27.28;41.34
68746;SHT31;66104;45.456;11.064;2023-05-06T13:33:46;27.30;41.11
68746;SHT31;66104;45.456;11.064;2023-05-06T13:36:22;27.37;41.27
68746;SHT31;66104;45.456;11.064;2023-05-06T13:38:58;27.48;41.06
68746;SHT31;66104;45.456;11.064;2023-05-06T13:41:34;27.57;40.52
68746;SHT31;66104;45.456;11.064;2023-05-06T13:44:11;27.61;40.12
68746;SHT31;66104;45.456;11.064;2023-05-06T13:46:47;27.66;39.88
68746;SHT31;66104;45.456;11.064;2023-05-06T13:49:24;27.67;40.11
68746;SHT31;66104;45.456;11.064;2023-05-06T13:52:00;27.67;39.90
68746;SHT31;66104;45.456;11.064;2023-05-06T13:54:37;27.61;39.95
68746;SHT31;66104;45.456;11.064;2023-05-06T13:57:14;27.59;40.37
68746;SHT31;66104;45.456;11.064;2023-05-06T13:59:52;27.50;40.29
68746;SHT31;66104;45.456;11.064;2023-05-06T14:02:34;27.37;40.96
68746;SHT31;66104;45.456;11.064;2023-05-06T14:05:10;27.27;41.59
68746;SHT31;66104;45.456;11.064;2023-05-06T14:07:47;27.24;42.12
68746;SHT31;66104;45.456;11.064;2023-05-06T14:10:24;27.24;42.16
68746;SHT31;66104;45.456;11.064;2023-05-06T14:13:01;27.23;42.11
68746;SHT31;66104;45.456;11.064;2023-05-06T14:15:38;27.20;42.61
68746;SHT31;66104;45.456;11.064;2023-05-06T14:18:15;27.21;42.62
68746;SHT31;66104;45.456;11.064;2023-05-06T14:20:53;27.20;42.30
68746;SHT31;66104;45.456;11.064;2023-05-06T14:23:30;27.19;42.09
68746;SHT31;66104;45.456;11.064;2023-05-06T14:26:07;27.15;42.18
68746;SHT31;66104;45.456;11.064;2023-05-06T14:28:44;27.13;42.41
68746;SHT31;66104;45.456;11.064;2023-05-06T14:31:20;27.14;42.15
68746;SHT31;66104;45.456;11.064;2023-05-06T14:33:57;27.13;42.04
68746;SHT31;66104;45.456;11.064;2023-05-06T14:36:35;27.12;42.29
68746;SHT31;66104;45.456;11.064;2023-05-06T14:39:12;27.11;42.06
68746;SHT31;66104;45.456;11.064;2023-05-06T14:41:48;27.07;41.94
68746;SHT31;66104;45.456;11.064;2023-05-06T14:44:25;27.05;41.95
68746;SHT31;66104;45.456;11.064;2023-05-06T14:47:01;27.02;41.71
68746;SHT31;66104;45.456;11.064;2023-05-06T14:49:38;27.00;41.78
68746;SHT31;66104;45.456;11.064;2023-05-06T14:52:14;26.98;41.97
68746;SHT31;66104;45.456;11.064;2023-05-06T14:54:51;26.98;42.13
68746;SHT31;66104;45.456;11.064;2023-05-06T14:57:27;26.96;42.21
68746;SHT31;66104;45.456;11.064;2023-05-06T15:00:04;26.93;42.34
68746;SHT31;66104;45.456;11.064;2023-05-06T15:02:48;26.88;42.30
68746;SHT31;66104;45.456;11.064;2023-05-06T15:05:25;26.79;42.20
68746;SHT31;66104;45.456;11.064;2023-05-06T15:08:01;26.71;42.55
68746;SHT31;66104;45.456;11.064;2023-05-06T15:10:37;26.66;42.70
68746;SHT31;66104;45.456;11.064;2023-05-06T15:13:14;26.59;42.65
68746;SHT31;66104;45.456;11.064;2023-05-06T15:15:50;26.51;42.97
68746;SHT31;66104;45.456;11.064;2023-05-06T15:18:27;26.49;42.87
68746;SHT31;66104;45.456;11.064;2023-05-06T15:21:05;26.46;43.11
68746;SHT31;66104;45.456;11.064;2023-05-06T15:23:41;26.41;43.72
68746;SHT31;66104;45.456;11.064;2023-05-06T15:26:23;26.29;44.13
68746;SHT31;66104;45.456;11.064;2023-05-06T15:29:00;26.18;44.56
68746;SHT31;66104;45.456;11.064;2023-05-06T15:31:37;26.14;44.66
68746;SHT31;66104;45.456;11.064;2023-05-06T15:34:15;26.12;44.88
68746;SHT31;66104;45.456;11.064;2023-05-06T15:36:52;26.09;44.84
68746;SHT31;66104;45.456;11.064;2023-05-06T15:39:30;26.07;44.66
68746;SHT31;66104;45.456;11.064;2023-05-06T15:42:10;26.03;44.93
68746;SHT31;66104;45.456;11.064;2023-05-06T15:44:47;26.02;45.14
68746;SHT31;66104;45.456;11.064;2023-05-06T15:47:25;26.00;45.09
68746;SHT31;66104;45.456;11.064;2023-05-06T15:50:02;25.99;44.88
68746;SHT31;66104;45.456;11.064;2023-05-06T15:53:00;26.00;44.97
68746;SHT31;66104;45.456;11.064;2023-05-06T15:55:36;26.01;46.25
68746;SHT31;66104;45.456;11.064;2023-05-06T15:58:24;26.01;47.57
68746;SHT31;66104;45.456;11.064;2023-05-06T16:01:01;26.00;48.46
68746;SHT31;66104;45.456;11.064;2023-05-06T16:03:38;25.98;48.67
68746;SHT31;66104;45.456;11.064;2023-05-06T16:06:15;25.98;48.53
68746;SHT31;66104;45.456;11.064;2023-05-06T16:08:51;26.00;48.45
68746;SHT31;66104;45.456;11.064;2023-05-06T16:11:28;26.07;48.30
68746;SHT31;66104;45.456;11.064;2023-05-06T16:14:04;26.16;48.09
68746;SHT31;66104;45.456;11.064;2023-05-06T16:16:41;26.25;47.54
68746;SHT31;66104;45.456;11.064;2023-05-06T16:19:18;26.31;46.25
68746;SHT31;66104;45.456;11.064;2023-05-06T16:21:55;26.24;45.74
68746;SHT31;66104;45.456;11.064;2023-05-06T16:24:31;26.24;46.17
68746;SHT31;66104;45.456;11.064;2023-05-06T16:27:08;26.22;46.26
68746;SHT31;66104;45.456;11.064;2023-05-06T16:29:45;26.19;45.58